Time;durP1;ratioP1;P1;durP2;ratioP2;P2;SDS_P1;SDS_P2;PMS_P1;PMS_P2;Temp;Humidity;BMP_temperature;BMP_pressure;BME280_temperature;BME280_humidity;BME280_pressure;Samples;Min_cycle;Max_cycle;Signal;HPM_P1;HPM_P2
2023/03/29 00:02:08;;;;;;;4.88;2.00;;;6.10;99.90;;;;;;4981224;28;20657;-88
2023/03/29 00:04:34;;;;;;;5.57;2.60;;;6.00;99.90;;;;;;4949226;28;20465;-87
2023/03/29 00:07:03;;;;;;;5.32;2.30;;;6.00;99.90;;;;;;4979081;28;20050;-88
2023/03/29 00:09:31;;;;;;;5.60;2.67;;;6.00;99.90;;;;;;4967568;28;20388;-88
2023/03/29 00:11:58;;;;;;;6.93;2.47;;;6.00;99.90;;;;;;4964000;28;20042;-88
2023/03/29 00:14:24;;;;;;;6.13;2.33;;;6.00;99.90;;;;;;4979214;28;20064;-88
2023/03/29 00:16:49;;;;;;;6.15;2.20;;;6.00;99.90;;;;;;4979020;28;20054;-88
2023/03/29 00:19:16;;;;;;;6.53;2.45;;;6.00;99.90;;;;;;4977276;28;20045;-88
2023/03/29 00:21:41;;;;;;;5.72;2.47;;;6.00;99.90;;;;;;4993468;28;20104;-88
2023/03/29 00:24:07;;;;;;;5.90;2.28;;;6.00;99.90;;;;;;4978827;28;20054;-87
2023/03/29 00:26:33;;;;;;;5.47;2.55;;;6.00;99.90;;;;;;4977483;28;20050;-86
2023/03/29 00:28:59;;;;;;;4.70;2.47;;;5.90;99.90;;;;;;4977699;28;20046;-87
2023/03/29 00:31:25;;;;;;;7.43;2.45;;;5.90;99.90;;;;;;4968965;28;20078;-87
2023/03/29 00:33:54;;;;;;;5.72;2.63;;;5.90;99.90;;;;;;4972122;28;20050;-87
2023/03/29 00:36:21;;;;;;;7.45;2.35;;;5.90;99.90;;;;;;4972413;28;20070;-85
2023/03/29 00:38:46;;;;;;;5.60;2.22;;;5.90;99.90;;;;;;4972242;28;20078;-86
2023/03/29 00:41:12;;;;;;;6.72;2.55;;;5.90;99.90;;;;;;4981498;28;20058;-86
2023/03/29 00:43:57;;;;;;;5.78;2.40;;;5.90;99.90;;;;;;4971031;28;20046;-87
2023/03/29 00:46:24;;;;;;;8.15;2.60;;;5.90;99.90;;;;;;4975310;28;20046;-87
2023/03/29 00:49:07;;;;;;;6.28;2.35;;;5.90;99.90;;;;;;4974954;28;20181;-86
2023/03/29 00:51:37;;;;;;;6.70;2.50;;;5.90;99.90;;;;;;4979164;28;20081;-87
2023/03/29 00:54:06;;;;;;;6.32;3.38;;;5.90;99.90;;;;;;4969909;28;20041;-87
2023/03/29 00:56:36;;;;;;;8.05;2.85;;;5.90;99.90;;;;;;4976562;28;20042;-86
2023/03/29 00:59:04;;;;;;;6.22;2.35;;;5.90;99.90;;;;;;4976340;28;20707;-87
2023/03/29 01:01:53;;;;;;;6.40;2.78;;;5.90;99.90;;;;;;4978073;28;20050;-88
2023/03/29 01:04:45;;;;;;;4.40;2.40;;;5.90;99.90;;;;;;4976719;28;20074;-88
2023/03/29 01:07:29;;;;;;;7.25;3.25;;;6.00;99.90;;;;;;4959514;28;20493;-87
2023/03/29 01:10:35;;;;;;;6.93;2.75;;;6.30;99.90;;;;;;4963040;28;20054;-86
2023/03/29 01:13:13;;;;;;;6.82;2.70;;;6.20;99.90;;;;;;4966162;28;20054;-88
2023/03/29 01:15:42;;;;;;;7.82;3.22;;;5.90;99.90;;;;;;4989227;28;20058;-87
2023/03/29 01:18:08;;;;;;;7.88;2.45;;;5.80;99.90;;;;;;4978963;28;20548;-87
2023/03/29 01:20:45;;;;;;;5.65;2.65;;;6.40;99.90;;;;;;4979357;28;20038;-87
2023/03/29 01:23:16;;;;;;;7.60;2.70;;;5.90;99.90;;;;;;4968560;28;20172;-87
2023/03/29 01:26:08;;;;;;;6.93;3.20;;;5.90;99.90;;;;;;4970841;28;20055;-87
2023/03/29 01:28:45;;;;;;;6.93;3.08;;;5.80;99.90;;;;;;4966639;28;20057;-86
2023/03/29 01:31:44;;;;;;;7.18;3.17;;;5.80;99.90;;;;;;4973211;28;20194;-87
2023/03/29 01:34:18;;;;;;;7.82;3.67;;;5.80;99.90;;;;;;4974556;28;20047;-87
2023/03/29 01:36:57;;;;;;;5.65;3.08;;;5.80;99.90;;;;;;4977314;28;20092;-87
2023/03/29 01:39:23;;;;;;;5.78;3.60;;;5.80;99.90;;;;;;4980120;28;20038;-87
2023/03/29 01:42:15;;;;;;;9.23;3.35;;;6.10;99.90;;;;;;4978396;28;20042;-87
2023/03/29 01:45:13;;;;;;;7.40;4.00;;;5.80;99.90;;;;;;4979819;28;20511;-87
2023/03/29 01:47:51;;;;;;;7.50;3.25;;;5.80;99.90;;;;;;4973884;28;20053;-87
2023/03/29 01:50:37;;;;;;;7.70;3.97;;;5.80;99.90;;;;;;4982525;28;20111;-87
2023/03/29 01:53:17;;;;;;;7.57;3.85;;;5.80;99.90;;;;;;4978116;28;20034;-87
2023/03/29 01:55:54;;;;;;;9.57;3.83;;;5.80;99.90;;;;;;4994519;28;20050;-88
2023/03/29 01:58:25;;;;;;;6.97;3.97;;;5.80;99.90;;;;;;4968496;28;20038;-87
2023/03/29 02:00:54;;;;;;;8.77;4.13;;;5.80;99.90;;;;;;4978011;28;20121;-87
2023/03/29 02:03:23;;;;;;;6.65;3.50;;;5.80;99.90;;;;;;4955261;28;20105;-87
2023/03/29 02:05:51;;;;;;;8.32;4.03;;;5.80;99.90;;;;;;4976073;28;20130;-88
2023/03/29 02:08:21;;;;;;;7.70;4.15;;;5.80;99.90;;;;;;4969140;28;20058;-87
2023/03/29 02:10:47;;;;;;;8.68;3.47;;;5.90;99.90;;;;;;4977634;28;20109;-86
2023/03/29 02:13:13;;;;;;;8.43;3.97;;;5.80;99.90;;;;;;4973411;28;20124;-86
2023/03/29 02:15:38;;;;;;;7.75;3.63;;;5.80;99.90;;;;;;4978528;28;20038;-86
2023/03/29 02:18:05;;;;;;;9.98;4.53;;;5.80;99.90;;;;;;4983038;28;20500;-86
2023/03/29 02:20:42;;;;;;;11.25;4.25;;;5.80;99.90;;;;;;4967538;28;20058;-86
2023/03/29 02:23:33;;;;;;;6.93;3.60;;;5.70;99.90;;;;;;5000872;28;20141;-86
2023/03/29 02:26:00;;;;;;;11.52;4.03;;;5.80;99.90;;;;;;4962369;28;20170;-86
2023/03/29 02:28:28;;;;;;;8.70;4.32;;;5.80;99.90;;;;;;4975842;28;20576;-86
2023/03/29 02:31:25;;;;;;;10.13;4.72;;;5.80;99.90;;;;;;4973816;28;20054;-87
2023/03/29 02:34:07;;;;;;;10.85;4.43;;;5.70;99.90;;;;;;4975540;28;20080;-86
2023/03/29 02:36:48;;;;;;;8.98;4.63;;;5.70;99.90;;;;;;4974440;28;20431;-86
2023/03/29 02:39:15;;;;;;;8.15;4.70;;;5.80;99.90;;;;;;4972294;28;20571;-86
2023/03/29 02:41:46;;;;;;;7.43;4.35;;;5.80;99.90;;;;;;4986891;28;20050;-87
2023/03/29 02:44:15;;;;;;;8.73;4.40;;;5.80;99.90;;;;;;4979394;28;20042;-86
2023/03/29 02:46:42;;;;;;;8.80;4.40;;;5.80;99.90;;;;;;4977644;28;20065;-87
2023/03/29 02:49:12;;;;;;;9.98;4.35;;;5.80;99.90;;;;;;4969413;28;20120;-87
2023/03/29 02:51:37;;;;;;;8.93;4.80;;;5.80;99.90;;;;;;4973641;28;20051;-87
2023/03/29 02:54:30;;;;;;;7.25;3.90;;;5.80;99.90;;;;;;4969181;28;20073;-86
2023/03/29 02:56:59;;;;;;;10.57;4.80;;;5.50;99.90;;;;;;4969463;28;20051;-87
2023/03/29 02:59:25;;;;;;;9.68;4.70;;;5.70;99.90;;;;;;4990140;28;20441;-88
2023/03/29 03:01:52;;;;;;;9.27;5.03;;;5.80;99.90;;;;;;4973731;28;20456;-87
2023/03/29 03:04:21;;;;;;;8.07;4.70;;;5.70;99.90;;;;;;4975309;28;20038;-87
2023/03/29 03:06:48;;;;;;;10.38;4.70;;;5.80;99.90;;;;;;4976349;28;20089;-88
2023/03/29 03:09:14;;;;;;;10.70;5.32;;;6.40;99.90;;;;;;4971429;28;20054;-87
2023/03/29 03:11:40;;;;;;;9.43;4.97;;;5.80;99.90;;;;;;4988802;28;20061;-87
2023/03/29 03:14:06;;;;;;;9.80;5.00;;;5.70;99.90;;;;;;4981578;28;20045;-88
2023/03/29 03:16:32;;;;;;;7.80;4.50;;;5.80;99.90;;;;;;4981221;28;20412;-87
2023/03/29 03:18:58;;;;;;;10.30;5.13;;;5.70;99.90;;;;;;4975904;28;20443;-86
2023/03/29 03:21:24;;;;;;;8.52;4.78;;;5.80;99.90;;;;;;4961297;28;20046;-87
2023/03/29 03:23:50;;;;;;;15.38;4.78;;;5.70;99.90;;;;;;4971770;28;20082;-87
2023/03/29 03:26:17;;;;;;;9.63;5.25;;;5.80;99.90;;;;;;4979115;28;20038;-87
2023/03/29 03:28:44;;;;;;;9.00;4.80;;;5.80;99.90;;;;;;4987874;28;20771;-87
2023/03/29 03:31:12;;;;;;;12.75;5.68;;;5.80;99.90;;;;;;4975271;28;20054;-87
2023/03/29 03:33:39;;;;;;;13.80;6.05;;;5.80;99.90;;;;;;4970303;28;20046;-86
2023/03/29 03:36:09;;;;;;;10.48;5.50;;;5.80;99.90;;;;;;4978609;28;20129;-86
2023/03/29 03:38:37;;;;;;;12.90;6.88;;;5.80;99.90;;;;;;4968420;28;20558;-86
2023/03/29 03:41:03;;;;;;;11.40;5.38;;;5.80;99.90;;;;;;4975039;28;20073;-86
2023/03/29 03:43:30;;;;;;;10.18;5.90;;;5.80;99.90;;;;;;4994809;28;20482;-85
2023/03/29 03:45:55;;;;;;;12.10;5.05;;;5.80;99.90;;;;;;4981768;28;20418;-86
2023/03/29 03:48:22;;;;;;;9.30;5.97;;;5.80;99.90;;;;;;4965815;28;20161;-86
2023/03/29 03:50:53;;;;;;;12.35;5.72;;;5.80;99.90;;;;;;4972043;28;20046;-85
2023/03/29 03:53:20;;;;;;;11.10;6.55;;;5.80;99.90;;;;;;4981910;28;20042;-86
2023/03/29 03:55:48;;;;;;;10.95;6.65;;;5.80;99.90;;;;;;4979549;28;20092;-85
2023/03/29 03:58:14;;;;;;;14.68;6.43;;;5.80;99.90;;;;;;4982010;28;20038;-85
2023/03/29 04:00:40;;;;;;;14.77;6.93;;;5.80;99.90;;;;;;4980013;28;20054;-86
2023/03/29 04:03:06;;;;;;;11.50;6.70;;;5.80;99.90;;;;;;4984390;28;20061;-86
2023/03/29 04:05:31;;;;;;;13.07;7.43;;;5.80;99.90;;;;;;4973022;28;20061;-85
2023/03/29 04:07:57;;;;;;;14.50;7.35;;;5.80;99.90;;;;;;4993740;28;20050;-86
2023/03/29 04:10:23;;;;;;;12.82;6.82;;;5.80;99.90;;;;;;4983677;28;20061;-86
2023/03/29 04:12:49;;;;;;;9.63;5.63;;;5.80;99.90;;;;;;4976805;28;20085;-86
2023/03/29 04:15:16;;;;;;;10.68;6.30;;;5.80;99.90;;;;;;4986938;28;20071;-87
2023/03/29 04:17:42;;;;;;;15.13;7.63;;;5.80;99.90;;;;;;4982526;28;20053;-87
2023/03/29 04:20:12;;;;;;;13.27;6.93;;;5.80;99.90;;;;;;4995592;28;20042;-87
2023/03/29 04:22:38;;;;;;;14.98;7.70;;;5.80;99.90;;;;;;4979576;28;20493;-87
2023/03/29 04:25:06;;;;;;;13.55;8.13;;;5.80;99.90;;;;;;4981490;28;20046;-87
2023/03/29 04:27:32;;;;;;;15.30;7.45;;;5.80;99.90;;;;;;4972393;28;20111;-87
2023/03/29 04:29:58;;;;;;;15.25;7.43;;;5.80;99.90;;;;;;4976650;28;20046;-87
2023/03/29 04:32:24;;;;;;;12.07;7.10;;;5.80;99.90;;;;;;4973076;28;20507;-87
2023/03/29 04:34:49;;;;;;;16.88;8.18;;;5.90;99.90;;;;;;4977567;28;20053;-87
2023/03/29 04:37:20;;;;;;;14.15;8.45;;;5.90;99.90;;;;;;4975700;28;20047;-87
2023/03/29 04:39:47;;;;;;;11.65;7.00;;;5.90;99.90;;;;;;4970996;28;20387;-87
2023/03/29 04:42:13;;;;;;;14.73;8.15;;;5.80;99.90;;;;;;4975105;28;20046;-87
2023/03/29 04:44:41;;;;;;;12.32;7.65;;;5.90;99.90;;;;;;4996760;28;20546;-87
2023/03/29 04:47:07;;;;;;;14.10;7.68;;;5.90;99.90;;;;;;4970532;28;20046;-87
2023/03/29 04:49:32;;;;;;;12.25;7.68;;;5.90;99.90;;;;;;4980893;28;20053;-87
2023/03/29 04:51:59;;;;;;;13.88;8.30;;;5.90;99.90;;;;;;4989692;28;20038;-87
2023/03/29 04:54:25;;;;;;;15.27;8.20;;;5.90;99.90;;;;;;4987470;28;20116;-87
2023/03/29 04:56:51;;;;;;;13.63;8.35;;;5.90;99.90;;;;;;4976599;28;20054;-87
2023/03/29 04:59:17;;;;;;;14.43;8.25;;;5.90;99.90;;;;;;4975581;28;20039;-86
2023/03/29 05:01:43;;;;;;;12.88;7.53;;;5.90;99.90;;;;;;4974368;28;20419;-86
2023/03/29 05:04:09;;;;;;;12.73;8.05;;;5.90;99.90;;;;;;4977855;28;20050;-86
2023/03/29 05:06:36;;;;;;;17.63;8.63;;;5.90;99.90;;;;;;4959824;28;20043;-86
2023/03/29 05:09:03;;;;;;;17.88;8.23;;;5.90;99.90;;;;;;4996096;28;20048;-86
2023/03/29 05:11:30;;;;;;;15.32;8.85;;;5.90;99.90;;;;;;4970535;28;20046;-88
2023/03/29 05:14:01;;;;;;;12.63;8.07;;;5.90;99.90;;;;;;4971466;28;20049;-88
2023/03/29 05:16:28;;;;;;;16.05;8.98;;;5.90;99.90;;;;;;4980338;28;20046;-87
2023/03/29 05:18:55;;;;;;;16.05;10.00;;;5.90;99.90;;;;;;4991061;28;20053;-87
2023/03/29 05:21:21;;;;;;;14.02;8.50;;;5.90;99.90;;;;;;4970919;28;20122;-86
2023/03/29 05:23:47;;;;;;;14.07;8.15;;;5.90;99.90;;;;;;4979855;28;20060;-86
2023/03/29 05:26:14;;;;;;;14.80;8.85;;;6.00;99.90;;;;;;4978388;28;20056;-92
2023/03/29 05:28:40;;;;;;;15.02;8.50;;;5.90;99.90;;;;;;4995322;28;20558;-92
2023/03/29 05:31:07;;;;;;;16.58;8.43;;;5.90;99.90;;;;;;4960010;28;20077;-91
2023/03/29 05:33:34;;;;;;;14.13;7.90;;;5.90;99.90;;;;;;4991830;28;20089;-93
2023/03/29 05:36:04;;;;;;;15.13;7.97;;;6.30;99.90;;;;;;4981796;28;20092;-91
2023/03/29 05:38:31;;;;;;;14.50;7.90;;;5.90;99.90;;;;;;4979232;28;20066;-93
2023/03/29 05:40:58;;;;;;;14.13;8.15;;;5.90;99.90;;;;;;4966651;28;20042;-93
2023/03/29 05:43:23;;;;;;;17.02;9.27;;;6.00;99.90;;;;;;4987983;28;20072;-93
2023/03/29 05:45:55;;;;;;;18.42;9.30;;;6.00;99.90;;;;;;4970690;28;20042;-87
2023/03/29 05:48:22;;;;;;;16.90;9.50;;;5.80;99.90;;;;;;4980572;28;20125;-86
2023/03/29 05:50:50;;;;;;;15.65;9.77;;;6.00;99.90;;;;;;4983232;28;20046;-85
2023/03/29 05:53:20;;;;;;;15.48;8.90;;;6.00;99.90;;;;;;4963618;28;20130;-88
2023/03/29 05:55:46;;;;;;;11.82;7.55;;;6.00;99.90;;;;;;4994770;28;20149;-86
2023/03/29 05:58:12;;;;;;;13.73;7.90;;;6.00;99.90;;;;;;4978250;28;20115;-86
2023/03/29 06:00:39;;;;;;;18.10;9.02;;;6.00;99.90;;;;;;4995373;28;20042;-90
2023/03/29 06:03:09;;;;;;;13.80;8.32;;;6.00;99.90;;;;;;4987261;28;20051;-90
2023/03/29 06:05:35;;;;;;;14.95;9.27;;;6.80;99.90;;;;;;4991564;28;20046;-89
2023/03/29 06:08:01;;;;;;;14.23;8.48;;;6.00;99.90;;;;;;4976189;28;20038;-89
2023/03/29 06:10:27;;;;;;;16.88;9.45;;;6.00;99.90;;;;;;4978516;28;20475;-89
2023/03/29 06:12:54;;;;;;;18.40;9.48;;;6.00;99.90;;;;;;4975657;28;20607;-90
2023/03/29 06:15:20;;;;;;;16.95;9.65;;;6.00;99.90;;;;;;4973781;28;20042;-88
2023/03/29 06:17:46;;;;;;;17.25;9.43;;;6.00;99.90;;;;;;5004245;28;20129;-88
2023/03/29 06:20:13;;;;;;;15.27;8.75;;;6.00;99.90;;;;;;4978661;28;20042;-87
2023/03/29 06:22:40;;;;;;;18.00;8.95;;;6.00;99.90;;;;;;4961769;28;20042;-87
2023/03/29 06:25:08;;;;;;;12.93;8.30;;;5.20;99.90;;;;;;4971828;28;20046;-82
2023/03/29 06:27:34;;;;;;;15.52;9.95;;;6.00;99.90;;;;;;4977851;28;20656;-83
2023/03/29 06:30:01;;;;;;;16.77;8.88;;;6.10;99.90;;;;;;4963806;28;20049;-83
2023/03/29 06:32:27;;;;;;;17.00;9.77;;;6.00;99.90;;;;;;4974761;28;20054;-83
2023/03/29 06:34:53;;;;;;;15.73;9.07;;;6.00;99.90;;;;;;4972196;28;20786;-84
2023/03/29 06:37:20;;;;;;;13.90;9.60;;;6.00;99.90;;;;;;4971285;28;20359;-83
2023/03/29 06:39:51;;;;;;;23.13;12.15;;;6.00;99.90;;;;;;4972665;28;20042;-82
2023/03/29 06:42:21;;;;;;;20.35;10.07;;;6.00;99.90;;;;;;4976702;28;20081;-83
2023/03/29 06:44:48;;;;;;;20.42;13.45;;;6.10;99.90;;;;;;4979750;28;20039;-82
2023/03/29 06:47:15;;;;;;;17.25;10.90;;;6.30;99.90;;;;;;4980027;28;20042;-84
2023/03/29 06:49:41;;;;;;;15.52;10.65;;;6.10;99.90;;;;;;4970790;28;20046;-82
2023/03/29 06:52:07;;;;;;;17.42;10.27;;;6.10;99.90;;;;;;4962582;28;20074;-82
2023/03/29 06:54:33;;;;;;;18.25;9.93;;;6.10;99.90;;;;;;4979731;28;20030;-84
2023/03/29 06:57:00;;;;;;;17.63;10.70;;;6.10;99.90;;;;;;4979669;28;20049;-84
2023/03/29 06:59:25;;;;;;;17.15;9.43;;;6.20;99.90;;;;;;4972750;28;20050;-85
2023/03/29 07:01:53;;;;;;;16.92;9.27;;;6.20;99.90;;;;;;4972544;28;20038;-86
2023/03/29 07:04:22;;;;;;;18.10;10.68;;;6.20;99.90;;;;;;4979202;28;20110;-85
2023/03/29 07:06:57;;;;;;;19.42;10.48;;;6.40;99.90;;;;;;4972739;28;20214;-85
2023/03/29 07:09:25;;;;;;;19.40;9.82;;;6.20;99.90;;;;;;4990151;28;20050;-86
2023/03/29 07:11:50;;;;;;;15.98;9.20;;;6.30;99.90;;;;;;4977731;28;20237;-85
2023/03/29 07:14:16;;;;;;;18.90;10.68;;;6.30;99.90;;;;;;4982343;28;20753;-86
2023/03/29 07:16:45;;;;;;;16.98;10.77;;;6.30;99.90;;;;;;4983784;28;20047;-87
2023/03/29 07:19:12;;;;;;;20.65;10.30;;;6.30;99.90;;;;;;4988439;28;20045;-88
2023/03/29 07:21:38;;;;;;;16.30;10.00;;;6.70;99.90;;;;;;4989663;28;20042;-86
2023/03/29 07:24:05;;;;;;;15.80;9.65;;;6.40;99.90;;;;;;4980908;28;20054;-86
2023/03/29 07:26:32;;;;;;;16.23;9.90;;;6.40;99.90;;;;;;4987461;28;20038;-88
2023/03/29 07:28:59;;;;;;;15.38;9.35;;;6.40;99.90;;;;;;4970070;28;20455;-88
2023/03/29 07:31:25;;;;;;;21.25;11.25;;;6.50;99.90;;;;;;4976870;28;20042;-86
2023/03/29 07:33:52;;;;;;;15.43;10.10;;;6.50;99.90;;;;;;4979295;28;20035;-87
2023/03/29 07:36:20;;;;;;;16.75;9.82;;;6.80;99.90;;;;;;4977464;28;20105;-86
2023/03/29 07:38:47;;;;;;;18.80;9.57;;;6.60;99.90;;;;;;4970564;28;20065;-85
2023/03/29 07:41:13;;;;;;;17.00;8.90;;;6.60;99.90;;;;;;4970652;28;20042;-86
2023/03/29 07:43:41;;;;;;;15.23;9.65;;;7.50;99.90;;;;;;4969094;28;20493;-86
2023/03/29 07:46:08;;;;;;;14.43;8.73;;;6.70;99.90;;;;;;4977175;28;20102;-86
2023/03/29 07:48:35;;;;;;;16.20;8.48;;;6.70;99.90;;;;;;4979178;28;20509;-86
2023/03/29 07:51:02;;;;;;;15.50;8.85;;;6.70;99.90;;;;;;4993054;28;20092;-86
2023/03/29 07:53:32;;;;;;;18.58;8.98;;;6.70;99.90;;;;;;4980974;28;20082;-87
2023/03/29 07:55:58;;;;;;;13.70;8.18;;;6.70;99.90;;;;;;4978923;28;20046;-85
2023/03/29 07:58:24;;;;;;;14.40;8.05;;;6.80;99.90;;;;;;4966266;28;20046;-86
2023/03/29 08:00:49;;;;;;;14.82;8.25;;;6.70;99.90;;;;;;4967031;28;20722;-85
2023/03/29 08:03:15;;;;;;;15.98;8.60;;;6.80;99.90;;;;;;4997244;28;20035;-86
2023/03/29 08:05:42;;;;;;;13.80;8.48;;;6.80;99.90;;;;;;4968125;28;20493;-85
2023/03/29 08:08:08;;;;;;;15.50;8.77;;;6.80;99.90;;;;;;4995059;28;20042;-86
2023/03/29 08:10:36;;;;;;;14.43;8.32;;;6.90;99.90;;;;;;4968387;28;20050;-85
2023/03/29 08:13:07;;;;;;;16.00;8.48;;;6.90;99.90;;;;;;4974835;28;20105;-85
2023/03/29 08:15:34;;;;;;;14.05;8.02;;;6.90;99.90;;;;;;4984072;28;20042;-86
2023/03/29 08:17:59;;;;;;;15.02;7.95;;;7.00;99.90;;;;;;4970290;28;20038;-87
2023/03/29 08:20:25;;;;;;;13.95;7.72;;;7.00;99.90;;;;;;4973222;28;20046;-87
2023/03/29 08:22:51;;;;;;;12.88;7.18;;;7.00;99.90;;;;;;4980931;28;20129;-87
2023/03/29 08:25:17;;;;;;;12.10;7.43;;;7.10;99.90;;;;;;5012359;28;20076;-86
2023/03/29 08:27:43;;;;;;;13.10;8.10;;;7.10;99.90;;;;;;4979877;28;20042;-86
2023/03/29 08:30:09;;;;;;;12.57;7.88;;;7.20;99.90;;;;;;4975159;28;20049;-85
2023/03/29 08:32:36;;;;;;;13.50;8.23;;;7.20;99.90;;;;;;4977192;28;20046;-86
2023/03/29 08:35:08;;;;;;;12.82;7.88;;;7.30;99.90;;;;;;4998779;28;20042;-85
2023/03/29 08:37:35;;;;;;;14.25;8.20;;;7.30;99.90;;;;;;4980286;28;20038;-86
2023/03/29 08:40:01;;;;;;;12.38;7.15;;;7.40;99.90;;;;;;4994676;28;20039;-86
2023/03/29 08:43:08;;;;;;;13.05;7.78;;;7.40;99.90;;;;;;4973965;28;20603;-85
2023/03/29 08:45:50;;;;;;;12.30;7.45;;;7.50;99.90;;;;;;4972761;28;20050;-85
2023/03/29 08:48:35;;;;;;;13.05;7.72;;;7.50;99.90;;;;;;4977183;28;20088;-86
2023/03/29 08:51:10;;;;;;;14.80;8.27;;;7.60;99.90;;;;;;4971095;28;20046;-86
2023/03/29 08:53:49;;;;;;;15.35;8.30;;;7.60;99.90;;;;;;4979581;28;20061;-85
2023/03/29 08:56:18;;;;;;;13.82;7.85;;;7.70;99.90;;;;;;4968684;28;20047;-86
2023/03/29 08:58:45;;;;;;;14.70;8.32;;;7.70;99.90;;;;;;4971137;28;20047;-86
2023/03/29 09:01:10;;;;;;;12.45;7.20;;;7.80;99.90;;;;;;4985083;28;20157;-86
2023/03/29 09:03:46;;;;;;;11.88;7.72;;;7.90;99.90;;;;;;4967734;28;20141;-86
2023/03/29 09:06:13;;;;;;;12.05;7.50;;;8.00;99.90;;;;;;4983416;28;20049;-86
2023/03/29 09:08:40;;;;;;;16.75;7.93;;;8.10;99.90;;;;;;4994718;28;20065;-85
2023/03/29 09:11:36;;;;;;;11.98;7.75;;;8.20;99.90;;;;;;4985771;28;20046;-85
2023/03/29 09:14:43;;;;;;;13.90;7.82;;;8.20;99.90;;;;;;4979809;28;20046;-85
2023/03/29 09:17:41;;;;;;;11.95;7.10;;;8.30;99.90;;;;;;4959251;28;20054;-85
2023/03/29 09:20:21;;;;;;;16.63;7.82;;;8.30;99.90;;;;;;5004253;23;20077;-85
2023/03/29 09:23:24;;;;;;;13.73;7.72;;;8.30;99.90;;;;;;5004733;28;20053;-85
2023/03/29 09:25:58;;;;;;;14.18;8.02;;;8.40;99.90;;;;;;5005320;28;20065;-86
2023/03/29 09:28:24;;;;;;;;;;;8.40;99.90;;;;;;5002229;28;20108;-86
2023/03/29 09:30:52;;;;;;;11.73;7.72;;;8.50;99.90;;;;;;5003247;28;19925;-85
2023/03/29 09:33:30;;;;;;;13.38;7.65;;;8.60;99.90;;;;;;5004773;28;20042;-86
2023/03/29 09:36:16;;;;;;;13.00;7.32;;;8.70;99.90;;;;;;5005604;28;20042;-86
2023/03/29 09:38:46;;;;;;;13.15;7.30;;;8.80;99.90;;;;;;5004990;28;20183;-86
2023/03/29 09:41:23;;;;;;;14.02;8.15;;;8.90;99.90;;;;;;4999367;28;20057;-86
2023/03/29 09:43:50;;;;;;;13.52;7.68;;;8.90;99.90;;;;;;5005347;28;20107;-85
2023/03/29 09:46:43;;;;;;;17.92;8.05;;;9.00;99.90;;;;;;5006269;28;20123;-86
2023/03/29 09:49:17;;;;;;;16.33;7.90;;;9.00;99.90;;;;;;5000922;28;20053;-86
2023/03/29 09:51:46;;;;;;;17.25;8.00;;;9.10;99.90;;;;;;5003519;28;20050;-86
2023/03/29 09:54:12;;;;;;;13.55;7.68;;;9.20;99.90;;;;;;5000198;28;20117;-86
2023/03/29 09:56:39;;;;;;;15.75;7.53;;;9.30;99.90;;;;;;4987309;28;20555;-86
2023/03/29 09:59:06;;;;;;;12.05;7.43;;;9.30;99.90;;;;;;5005905;28;20434;-86
2023/03/29 10:01:45;;;;;;;13.43;7.40;;;9.40;99.90;;;;;;4987928;28;20042;-86
2023/03/29 10:04:12;;;;;;;14.32;7.72;;;9.40;99.90;;;;;;5002762;28;20045;-86
2023/03/29 10:06:44;;;;;;;12.35;7.22;;;9.40;99.90;;;;;;5005447;28;20052;-86
2023/03/29 10:09:22;;;;;;;12.57;7.57;;;9.50;99.90;;;;;;5007190;28;20116;-86
2023/03/29 10:11:55;;;;;;;12.80;7.88;;;9.50;99.90;;;;;;5004973;28;20104;-86
2023/03/29 10:14:35;;;;;;;15.15;8.73;;;9.60;99.90;;;;;;5016123;28;20145;-87
2023/03/29 10:17:05;;;;;;;18.17;8.10;;;9.60;99.90;;;;;;5002437;28;20053;-87
2023/03/29 10:19:34;;;;;;;14.00;8.32;;;9.70;99.90;;;;;;5003216;28;20038;-87
2023/03/29 10:22:03;;;;;;;16.10;8.85;;;9.70;99.90;;;;;;4987058;28;20556;-87
2023/03/29 10:24:29;;;;;;;16.60;8.55;;;9.70;99.90;;;;;;4985335;28;20053;-87
2023/03/29 10:27:01;;;;;;;15.30;9.40;;;9.80;99.90;;;;;;5001663;28;20042;-86
2023/03/29 10:29:36;;;;;;;17.02;9.18;;;9.90;99.90;;;;;;5001467;28;20154;-87
2023/03/29 10:32:17;;;;;;;20.92;10.80;;;9.90;99.90;;;;;;4984593;28;20224;-87
2023/03/29 10:34:45;;;;;;;19.85;9.80;;;10.00;99.90;;;;;;4999250;28;20585;-87
2023/03/29 10:37:15;;;;;;;18.45;9.93;;;10.10;99.90;;;;;;5001823;28;20041;-87
2023/03/29 10:39:41;;;;;;;15.27;8.95;;;10.20;99.90;;;;;;5003129;28;20472;-86
2023/03/29 10:42:16;;;;;;;16.13;9.50;;;10.20;99.90;;;;;;5004222;28;20049;-87
2023/03/29 10:44:51;;;;;;;15.32;8.98;;;10.30;99.90;;;;;;5006402;28;20053;-87
2023/03/29 10:47:19;;;;;;;15.07;9.32;;;10.30;99.90;;;;;;5022909;28;20045;-86
2023/03/29 10:49:52;;;;;;;13.57;9.10;;;10.40;99.90;;;;;;5005388;28;20046;-87
2023/03/29 10:52:18;;;;;;;14.50;9.07;;;10.40;99.90;;;;;;5003894;28;20348;-86
2023/03/29 10:54:46;;;;;;;15.75;8.82;;;10.50;99.90;;;;;;5005532;28;20589;-86
2023/03/29 10:57:18;;;;;;;17.08;10.70;;;10.50;99.90;;;;;;5007848;28;20046;-87
2023/03/29 11:00:23;;;;;;;15.30;9.23;;;10.50;99.90;;;;;;5009498;28;20082;-86
2023/03/29 11:02:57;;;;;;;16.38;10.48;;;10.70;99.90;;;;;;5004325;28;20053;-86
2023/03/29 11:05:37;;;;;;;16.35;9.65;;;10.80;99.90;;;;;;5019667;28;20056;-86
2023/03/29 11:08:21;;;;;;;15.43;10.05;;;11.90;99.90;;;;;;5005825;28;20364;-86
2023/03/29 11:10:58;;;;;;;17.52;9.73;;;11.00;99.90;;;;;;5005636;28;20042;-86
2023/03/29 11:13:56;;;;;;;16.48;9.82;;;11.10;99.90;;;;;;4989813;28;20133;-86
2023/03/29 11:16:30;;;;;;;19.27;9.73;;;11.10;99.90;;;;;;5001704;28;20408;-85
2023/03/29 11:19:22;;;;;;;15.93;10.00;;;11.10;99.90;;;;;;4990220;28;20103;-85
2023/03/29 11:21:57;;;;;;;15.02;9.18;;;11.00;99.90;;;;;;4989502;28;20148;-85
2023/03/29 11:24:35;;;;;;;17.55;10.65;;;11.10;99.90;;;;;;5000897;28;20049;-86
2023/03/29 11:27:23;;;;;;;15.15;10.13;;;11.20;99.90;;;;;;5003309;28;20393;-85
2023/03/29 11:30:21;;;;;;;16.23;9.50;;;11.30;99.90;;;;;;5002662;28;20057;-86
2023/03/29 11:33:10;;;;;;;15.93;9.65;;;11.50;99.90;;;;;;5015020;28;20099;-87
2023/03/29 11:35:44;;;;;;;17.02;9.23;;;11.60;99.90;;;;;;5003789;28;20424;-86
2023/03/29 11:38:21;;;;;;;17.90;9.65;;;11.70;99.90;;;;;;4989553;28;20038;-87
2023/03/29 11:41:01;;;;;;;17.33;9.75;;;11.80;99.90;;;;;;5005737;28;20618;-86
2023/03/29 11:44:04;;;;;;;15.60;9.63;;;11.80;99.90;;;;;;5005106;28;20046;-90
2023/03/29 11:46:55;;;;;;;15.65;9.63;;;11.90;99.90;;;;;;4971032;28;20076;-90
2023/03/29 11:49:36;;;;;;;17.05;9.68;;;12.00;99.90;;;;;;5007378;28;20034;-89
2023/03/29 11:52:17;;;;;;;17.13;9.70;;;12.00;99.90;;;;;;5007692;28;20562;-89
2023/03/29 11:55:02;;;;;;;14.23;9.25;;;12.10;99.90;;;;;;4999825;28;20086;-86
2023/03/29 11:57:37;;;;;;;17.35;10.75;;;12.10;99.90;;;;;;5003910;28;20045;-87
2023/03/29 12:00:14;;;;;;;14.82;9.25;;;12.20;99.90;;;;;;5001810;28;20042;-87
2023/03/29 12:03:05;;;;;;;13.45;9.98;;;12.30;99.90;;;;;;5004024;28;20506;-87
2023/03/29 12:05:44;;;;;;;12.50;8.95;;;12.30;99.90;;;;;;4997548;28;20050;-87
2023/03/29 12:08:19;;;;;;;12.90;9.20;;;12.40;99.90;;;;;;5002838;28;20042;-87
2023/03/29 12:10:52;;;;;;;13.25;9.02;;;12.50;99.90;;;;;;5005859;28;20505;-87
2023/03/29 12:13:27;;;;;;;14.68;9.77;;;12.60;99.90;;;;;;4999252;28;20077;-90
2023/03/29 12:16:04;;;;;;;14.43;9.07;;;12.70;99.90;;;;;;4988331;28;20488;-87
2023/03/29 12:18:51;;;;;;;14.30;9.55;;;12.80;99.90;;;;;;5002595;28;20192;-87
2023/03/29 12:21:22;;;;;;;15.13;9.32;;;12.80;99.90;;;;;;5001018;28;20050;-88
2023/03/29 12:23:48;;;;;;;12.32;9.30;;;12.90;99.90;;;;;;5003098;28;20259;-88
2023/03/29 12:26:30;;;;;;;14.38;8.57;;;12.90;99.90;;;;;;5005311;28;20113;-87
2023/03/29 12:29:06;;;;;;;12.95;8.35;;;13.00;99.90;;;;;;5003246;28;20049;-87
2023/03/29 12:31:49;;;;;;;11.80;8.15;;;13.30;99.90;;;;;;5004760;28;20144;-92
2023/03/29 12:34:29;;;;;;;12.30;7.60;;;13.40;99.90;;;;;;5081979;23;20148;-86
2023/03/29 12:37:04;;;;;;;12.98;7.47;;;13.60;99.90;;;;;;4972611;28;20145;-87
2023/03/29 12:39:31;;;;;;;13.00;7.72;;;13.60;99.90;;;;;;4993186;28;20058;-86
2023/03/29 12:42:26;;;;;;;11.48;7.35;;;13.70;99.90;;;;;;4981956;28;20393;-88
2023/03/29 12:45:00;;;;;;;11.95;7.50;;;13.70;99.90;;;;;;4970140;28;20102;-89
2023/03/29 12:47:32;;;;;;;11.52;7.38;;;13.70;99.90;;;;;;4993164;28;20061;-88
2023/03/29 12:50:00;;;;;;;12.25;7.43;;;13.60;99.90;;;;;;4973583;28;20477;-90
2023/03/29 12:52:28;;;;;;;11.70;7.40;;;13.90;99.90;;;;;;4970625;28;20058;-89
2023/03/29 12:55:32;;;;;;;10.98;7.57;;;13.60;99.90;;;;;;4965468;28;20046;-87
2023/03/29 12:58:04;;;;;;;11.15;6.75;;;13.50;99.90;;;;;;4950725;28;20843;-90
2023/03/29 13:00:43;;;;;;;11.63;6.75;;;13.50;99.90;;;;;;4975131;28;20488;-89
2023/03/29 13:03:33;;;;;;;9.93;7.40;;;13.70;99.90;;;;;;4968842;28;20128;-89
2023/03/29 13:06:04;;;;;;;11.70;6.90;;;13.60;99.90;;;;;;4966513;28;20130;-89
2023/03/29 13:08:43;;;;;;;11.73;6.90;;;13.70;99.90;;;;;;4968683;28;20038;-88
2023/03/29 13:11:28;;;;;;;10.98;6.78;;;13.60;99.90;;;;;;4958340;28;20058;-89
2023/03/29 13:14:18;;;;;;;9.50;6.57;;;13.70;99.90;;;;;;4992289;28;20459;-88